Startpagina
METAR-TAF:

METAR-TAF

Vliegvelden :

Aeropuerto Capitán Av. Selin Zeitun Lopez

Riberalta, Bolivia

breedte: 11-00S, lengte: 066-07W, hoogte: 141 m

Actueel weer

Dit bericht is 59 minuten geleden gemaakt, om 12:00 UTC
Weinig wind
Temperatuur 26°C
Vochtigheid 89%
Druk 1011 hPa
Zicht 10 km of meer
Weinig wolken op 2000 ft
Verspreide wolken op 8000 ft
Gebroken wolken op 20000 ft

METAR: SLRI 191200Z 00000KT 9999 FEW020 SCT080 BKN200 26/24 Q1011

Tijdstip: 08:59 (12:59 UTC)


TAF: ontbreekt

Waarnemingen en weersverwachtingen van meer dan 4000 vliegvelden (METAR en TAF).

De beschikbare stations zijn de gele en rode punten op de kaart.

Ga met uw muis naar het station om de naam te zien.

Klik dan om waarnemingen en weersverwachtingen te zien.

kaart wijzigen: klik op de groene knoppen met een zwart kruis om in te zoomen, op de groene knop met een streepje om uit te zoomen of op de groene pijlen voor aangrenzende kaarten.


METAR-TAF: